sensor_id;sensor_type;location;lat;lon;timestamp;temperature;humidity
2489;DHT22;1255;48.716;9.124;2022-07-24T00:01:04;20.20;99.90
2489;DHT22;1255;48.716;9.124;2022-07-24T00:03:31;20.10;99.90
2489;DHT22;1255;48.716;9.124;2022-07-24T00:05:58;20.10;99.90
2489;DHT22;1255;48.716;9.124;2022-07-24T00:08:24;20.10;99.90
2489;DHT22;1255;48.716;9.124;2022-07-24T00:10:51;20.00;99.90
2489;DHT22;1255;48.716;9.124;2022-07-24T00:13:18;19.90;99.90
2489;DHT22;1255;48.716;9.124;2022-07-24T00:15:46;19.90;99.90
2489;DHT22;1255;48.716;9.124;2022-07-24T00:18:12;19.90;99.90
2489;DHT22;1255;48.716;9.124;2022-07-24T00:20:39;19.90;99.90
2489;DHT22;1255;48.716;9.124;2022-07-24T00:23:06;19.90;99.90
2489;DHT22;1255;48.716;9.124;2022-07-24T00:25:32;19.90;99.90
2489;DHT22;1255;48.716;9.124;2022-07-24T00:27:59;19.90;99.90
2489;DHT22;1255;48.716;9.124;2022-07-24T00:30:26;19.80;99.90
2489;DHT22;1255;48.716;9.124;2022-07-24T00:32:54;19.80;99.90
2489;DHT22;1255;48.716;9.124;2022-07-24T00:35:20;19.80;99.90
2489;DHT22;1255;48.716;9.124;2022-07-24T00:37:47;19.80;99.90
2489;DHT22;1255;48.716;9.124;2022-07-24T00:40:14;19.70;99.90
2489;DHT22;1255;48.716;9.124;2022-07-24T00:42:42;19.70;99.90
2489;DHT22;1255;48.716;9.124;2022-07-24T00:45:09;19.70;99.90
2489;DHT22;1255;48.716;9.124;2022-07-24T00:47:36;19.70;99.90
2489;DHT22;1255;48.716;9.124;2022-07-24T00:50:05;19.60;99.90
2489;DHT22;1255;48.716;9.124;2022-07-24T00:52:32;19.60;99.90
2489;DHT22;1255;48.716;9.124;2022-07-24T00:54:59;19.50;99.90
2489;DHT22;1255;48.716;9.124;2022-07-24T00:57:26;19.50;99.90
2489;DHT22;1255;48.716;9.124;2022-07-24T00:59:53;19.50;99.90
2489;DHT22;1255;48.716;9.124;2022-07-24T01:02:20;19.40;99.90
2489;DHT22;1255;48.716;9.124;2022-07-24T01:04:47;19.50;99.90
2489;DHT22;1255;48.716;9.124;2022-07-24T01:07:16;19.40;99.90
2489;DHT22;1255;48.716;9.124;2022-07-24T01:09:43;19.40;99.90
2489;DHT22;1255;48.716;9.124;2022-07-24T01:12:10;19.40;99.90
2489;DHT22;1255;48.716;9.124;2022-07-24T01:14:38;19.40;99.90
2489;DHT22;1255;48.716;9.124;2022-07-24T01:17:05;19.40;99.90
2489;DHT22;1255;48.716;9.124;2022-07-24T01:19:31;19.40;99.90
2489;DHT22;1255;48.716;9.124;2022-07-24T01:22:00;19.40;99.90
2489;DHT22;1255;48.716;9.124;2022-07-24T01:24:26;19.30;99.90
2489;DHT22;1255;48.716;9.124;2022-07-24T01:26:53;19.30;99.90
2489;DHT22;1255;48.716;9.124;2022-07-24T01:29:20;19.30;99.90
2489;DHT22;1255;48.716;9.124;2022-07-24T01:31:47;19.30;99.90
2489;DHT22;1255;48.716;9.124;2022-07-24T01:34:14;19.30;99.90
2489;DHT22;1255;48.716;9.124;2022-07-24T01:36:41;19.30;99.90
2489;DHT22;1255;48.716;9.124;2022-07-24T01:39:09;19.30;99.90
2489;DHT22;1255;48.716;9.124;2022-07-24T01:41:36;19.30;99.90
2489;DHT22;1255;48.716;9.124;2022-07-24T01:44:03;19.30;99.90
2489;DHT22;1255;48.716;9.124;2022-07-24T01:46:30;19.30;99.90
2489;DHT22;1255;48.716;9.124;2022-07-24T01:48:56;19.30;99.90
2489;DHT22;1255;48.716;9.124;2022-07-24T01:51:23;19.30;99.90
2489;DHT22;1255;48.716;9.124;2022-07-24T01:53:50;19.20;99.90
2489;DHT22;1255;48.716;9.124;2022-07-24T01:56:18;19.20;99.90
2489;DHT22;1255;48.716;9.124;2022-07-24T01:58:45;19.20;99.90
2489;DHT22;1255;48.716;9.124;2022-07-24T02:01:11;19.20;99.90
2489;DHT22;1255;48.716;9.124;2022-07-24T02:03:38;19.20;99.90
2489;DHT22;1255;48.716;9.124;2022-07-24T02:06:05;19.10;99.90
2489;DHT22;1255;48.716;9.124;2022-07-24T02:08:32;19.10;99.90
2489;DHT22;1255;48.716;9.124;2022-07-24T02:10:58;19.10;99.90
2489;DHT22;1255;48.716;9.124;2022-07-24T02:13:26;19.10;99.90
2489;DHT22;1255;48.716;9.124;2022-07-24T02:15:53;19.00;99.90
2489;DHT22;1255;48.716;9.124;2022-07-24T02:18:20;19.00;99.90
2489;DHT22;1255;48.716;9.124;2022-07-24T02:20:46;19.00;99.90
2489;DHT22;1255;48.716;9.124;2022-07-24T02:23:13;19.00;99.90
2489;DHT22;1255;48.716;9.124;2022-07-24T02:25:43;18.90;99.90
2489;DHT22;1255;48.716;9.124;2022-07-24T02:28:10;18.90;99.90
2489;DHT22;1255;48.716;9.124;2022-07-24T02:30:39;18.90;99.90
2489;DHT22;1255;48.716;9.124;2022-07-24T02:33:06;18.90;99.90
2489;DHT22;1255;48.716;9.124;2022-07-24T02:35:33;18.80;99.90
2489;DHT22;1255;48.716;9.124;2022-07-24T02:38:01;18.80;99.90
2489;DHT22;1255;48.716;9.124;2022-07-24T02:40:28;18.70;99.90
2489;DHT22;1255;48.716;9.124;2022-07-24T02:42:55;18.70;99.90
2489;DHT22;1255;48.716;9.124;2022-07-24T02:45:22;18.70;99.90
2489;DHT22;1255;48.716;9.124;2022-07-24T02:47:51;18.70;99.90
2489;DHT22;1255;48.716;9.124;2022-07-24T02:50:20;18.60;99.90
2489;DHT22;1255;48.716;9.124;2022-07-24T02:52:47;18.60;99.90
2489;DHT22;1255;48.716;9.124;2022-07-24T02:55:14;18.50;99.90
2489;DHT22;1255;48.716;9.124;2022-07-24T02:57:41;18.50;99.90
2489;DHT22;1255;48.716;9.124;2022-07-24T03:00:10;18.50;99.90
2489;DHT22;1255;48.716;9.124;2022-07-24T03:02:37;18.50;99.90
2489;DHT22;1255;48.716;9.124;2022-07-24T03:05:07;18.40;99.90
2489;DHT22;1255;48.716;9.124;2022-07-24T03:07:34;18.40;99.90
2489;DHT22;1255;48.716;9.124;2022-07-24T03:10:02;18.40;99.90
2489;DHT22;1255;48.716;9.124;2022-07-24T03:12:28;18.30;99.90
2489;DHT22;1255;48.716;9.124;2022-07-24T03:14:55;18.30;99.90
2489;DHT22;1255;48.716;9.124;2022-07-24T03:17:22;18.20;99.90
2489;DHT22;1255;48.716;9.124;2022-07-24T03:19:49;18.20;99.90
2489;DHT22;1255;48.716;9.124;2022-07-24T03:22:17;18.20;99.90
2489;DHT22;1255;48.716;9.124;2022-07-24T03:24:44;18.20;99.90
2489;DHT22;1255;48.716;9.124;2022-07-24T03:27:11;18.10;99.90
2489;DHT22;1255;48.716;9.124;2022-07-24T03:29:38;18.10;99.90
2489;DHT22;1255;48.716;9.124;2022-07-24T03:32:05;18.10;99.90
2489;DHT22;1255;48.716;9.124;2022-07-24T03:34:32;18.10;99.90
2489;DHT22;1255;48.716;9.124;2022-07-24T03:36:59;18.00;99.90
2489;DHT22;1255;48.716;9.124;2022-07-24T03:39:27;18.00;99.90
2489;DHT22;1255;48.716;9.124;2022-07-24T03:41:54;18.00;99.90
2489;DHT22;1255;48.716;9.124;2022-07-24T03:44:20;18.00;99.90
2489;DHT22;1255;48.716;9.124;2022-07-24T03:46:47;17.90;99.90
2489;DHT22;1255;48.716;9.124;2022-07-24T03:49:14;17.90;99.90
2489;DHT22;1255;48.716;9.124;2022-07-24T03:51:40;17.90;99.90
2489;DHT22;1255;48.716;9.124;2022-07-24T03:54:07;17.90;99.90
2489;DHT22;1255;48.716;9.124;2022-07-24T03:56:35;17.80;99.90
2489;DHT22;1255;48.716;9.124;2022-07-24T03:59:02;17.80;99.90
2489;DHT22;1255;48.716;9.124;2022-07-24T04:01:28;17.80;99.90
2489;DHT22;1255;48.716;9.124;2022-07-24T04:03:55;17.80;99.90
2489;DHT22;1255;48.716;9.124;2022-07-24T04:06:23;17.80;99.90
2489;DHT22;1255;48.716;9.124;2022-07-24T04:08:50;17.80;99.90
2489;DHT22;1255;48.716;9.124;2022-07-24T04:11:16;17.70;99.90
2489;DHT22;1255;48.716;9.124;2022-07-24T04:13:44;17.80;99.90
2489;DHT22;1255;48.716;9.124;2022-07-24T04:16:11;17.70;99.90
2489;DHT22;1255;48.716;9.124;2022-07-24T04:18:38;17.70;99.90
2489;DHT22;1255;48.716;9.124;2022-07-24T04:21:06;17.70;99.90
2489;DHT22;1255;48.716;9.124;2022-07-24T04:23:33;17.70;99.90
2489;DHT22;1255;48.716;9.124;2022-07-24T04:26:00;17.70;99.90
2489;DHT22;1255;48.716;9.124;2022-07-24T04:28:26;17.80;99.90
2489;DHT22;1255;48.716;9.124;2022-07-24T04:30:54;17.80;99.90
2489;DHT22;1255;48.716;9.124;2022-07-24T04:33:21;17.80;99.90
2489;DHT22;1255;48.716;9.124;2022-07-24T04:35:48;17.80;99.90
2489;DHT22;1255;48.716;9.124;2022-07-24T04:38:15;17.80;99.90
2489;DHT22;1255;48.716;9.124;2022-07-24T04:40:42;17.80;99.90
2489;DHT22;1255;48.716;9.124;2022-07-24T04:43:09;17.80;99.90
2489;DHT22;1255;48.716;9.124;2022-07-24T04:45:35;17.80;99.90
2489;DHT22;1255;48.716;9.124;2022-07-24T04:48:04;17.80;99.90
2489;DHT22;1255;48.716;9.124;2022-07-24T04:50:31;17.80;99.90
2489;DHT22;1255;48.716;9.124;2022-07-24T04:52:58;17.90;99.90
2489;DHT22;1255;48.716;9.124;2022-07-24T04:55:25;17.90;99.90
2489;DHT22;1255;48.716;9.124;2022-07-24T04:57:52;18.00;99.90
2489;DHT22;1255;48.716;9.124;2022-07-24T05:00:19;18.00;99.90
2489;DHT22;1255;48.716;9.124;2022-07-24T05:12:33;18.20;99.90
2489;DHT22;1255;48.716;9.124;2022-07-24T05:15:00;18.30;99.90
2489;DHT22;1255;48.716;9.124;2022-07-24T05:17:27;18.30;99.90
2489;DHT22;1255;48.716;9.124;2022-07-24T05:19:54;18.30;99.90
2489;DHT22;1255;48.716;9.124;2022-07-24T05:22:21;18.40;99.90
2489;DHT22;1255;48.716;9.124;2022-07-24T05:24:48;18.40;99.90
2489;DHT22;1255;48.716;9.124;2022-07-24T05:27:14;18.50;99.90
2489;DHT22;1255;48.716;9.124;2022-07-24T05:29:43;18.60;99.90
2489;DHT22;1255;48.716;9.124;2022-07-24T05:32:11;18.70;99.90
2489;DHT22;1255;48.716;9.124;2022-07-24T05:34:39;18.80;99.90
2489;DHT22;1255;48.716;9.124;2022-07-24T05:37:06;18.90;99.90
2489;DHT22;1255;48.716;9.124;2022-07-24T05:39:33;19.00;99.90
2489;DHT22;1255;48.716;9.124;2022-07-24T05:41:59;19.00;99.90
2489;DHT22;1255;48.716;9.124;2022-07-24T05:44:26;19.10;99.90
2489;DHT22;1255;48.716;9.124;2022-07-24T05:46:55;19.20;99.90
2489;DHT22;1255;48.716;9.124;2022-07-24T05:49:22;19.30;99.90
2489;DHT22;1255;48.716;9.124;2022-07-24T05:51:49;19.40;99.90
2489;DHT22;1255;48.716;9.124;2022-07-24T05:54:16;19.50;99.90
2489;DHT22;1255;48.716;9.124;2022-07-24T05:56:45;19.50;99.90
2489;DHT22;1255;48.716;9.124;2022-07-24T05:59:12;19.70;99.90
2489;DHT22;1255;48.716;9.124;2022-07-24T06:01:39;19.80;99.90
2489;DHT22;1255;48.716;9.124;2022-07-24T06:04:08;19.90;99.90
2489;DHT22;1255;48.716;9.124;2022-07-24T06:06:36;20.00;99.90
2489;DHT22;1255;48.716;9.124;2022-07-24T06:09:03;20.10;99.90
2489;DHT22;1255;48.716;9.124;2022-07-24T06:11:30;20.10;99.90
2489;DHT22;1255;48.716;9.124;2022-07-24T06:13:57;20.20;99.90
2489;DHT22;1255;48.716;9.124;2022-07-24T06:16:24;20.30;99.90
2489;DHT22;1255;48.716;9.124;2022-07-24T06:18:51;20.40;99.90
2489;DHT22;1255;48.716;9.124;2022-07-24T06:21:20;20.50;99.90
2489;DHT22;1255;48.716;9.124;2022-07-24T06:23:47;20.50;99.90
2489;DHT22;1255;48.716;9.124;2022-07-24T06:26:14;20.70;99.90
2489;DHT22;1255;48.716;9.124;2022-07-24T06:29:10;20.80;99.90
2489;DHT22;1255;48.716;9.124;2022-07-24T06:31:58;20.90;99.90
2489;DHT22;1255;48.716;9.124;2022-07-24T06:34:46;21.00;99.90
2489;DHT22;1255;48.716;9.124;2022-07-24T06:40:56;21.20;99.90
2489;DHT22;1255;48.716;9.124;2022-07-24T06:43:47;21.40;99.90
2489;DHT22;1255;48.716;9.124;2022-07-24T06:46:39;21.50;99.90
2489;DHT22;1255;48.716;9.124;2022-07-24T06:49:34;21.60;99.90
2489;DHT22;1255;48.716;9.124;2022-07-24T06:56:05;21.90;99.90
2489;DHT22;1255;48.716;9.124;2022-07-24T06:59:06;22.00;99.90
2489;DHT22;1255;48.716;9.124;2022-07-24T07:01:46;22.20;99.90
2489;DHT22;1255;48.716;9.124;2022-07-24T07:07:35;22.50;99.90
2489;DHT22;1255;48.716;9.124;2022-07-24T07:10:28;22.60;99.90
2489;DHT22;1255;48.716;9.124;2022-07-24T07:17:20;22.80;99.90
2489;DHT22;1255;48.716;9.124;2022-07-24T07:20:13;23.00;99.90
2489;DHT22;1255;48.716;9.124;2022-07-24T07:23:17;23.20;99.90
2489;DHT22;1255;48.716;9.124;2022-07-24T07:25:52;23.20;99.90
2489;DHT22;1255;48.716;9.124;2022-07-24T07:28:32;23.30;99.90
2489;DHT22;1255;48.716;9.124;2022-07-24T07:30:59;23.30;99.90
2489;DHT22;1255;48.716;9.124;2022-07-24T07:34:01;23.40;99.90
2489;DHT22;1255;48.716;9.124;2022-07-24T07:36:41;23.40;99.90
2489;DHT22;1255;48.716;9.124;2022-07-24T07:39:08;23.50;99.90
2489;DHT22;1255;48.716;9.124;2022-07-24T07:41:35;23.50;99.90
2489;DHT22;1255;48.716;9.124;2022-07-24T07:44:03;23.60;99.90
2489;DHT22;1255;48.716;9.124;2022-07-24T07:46:30;23.70;99.90
2489;DHT22;1255;48.716;9.124;2022-07-24T07:48:58;23.70;99.90
2489;DHT22;1255;48.716;9.124;2022-07-24T07:52:00;23.80;99.90
2489;DHT22;1255;48.716;9.124;2022-07-24T07:55:04;23.90;99.90
2489;DHT22;1255;48.716;9.124;2022-07-24T07:58:05;24.00;99.90
2489;DHT22;1255;48.716;9.124;2022-07-24T08:01:17;24.10;99.90
2489;DHT22;1255;48.716;9.124;2022-07-24T08:07:13;24.30;99.90
2489;DHT22;1255;48.716;9.124;2022-07-24T08:09:43;24.40;99.90
2489;DHT22;1255;48.716;9.124;2022-07-24T08:12:11;24.50;99.90
2489;DHT22;1255;48.716;9.124;2022-07-24T08:14:44;24.60;99.90
2489;DHT22;1255;48.716;9.124;2022-07-24T08:17:12;24.70;99.90
2489;DHT22;1255;48.716;9.124;2022-07-24T08:19:39;24.80;99.90
2489;DHT22;1255;48.716;9.124;2022-07-24T08:22:32;25.00;99.90
2489;DHT22;1255;48.716;9.124;2022-07-24T08:25:14;25.10;99.90
2489;DHT22;1255;48.716;9.124;2022-07-24T08:31:19;25.30;99.90
2489;DHT22;1255;48.716;9.124;2022-07-24T08:33:46;25.30;99.90
2489;DHT22;1255;48.716;9.124;2022-07-24T08:36:13;25.30;99.90
2489;DHT22;1255;48.716;9.124;2022-07-24T08:38:56;25.40;99.90
2489;DHT22;1255;48.716;9.124;2022-07-24T08:41:24;25.50;99.90
2489;DHT22;1255;48.716;9.124;2022-07-24T08:43:51;25.60;99.90
2489;DHT22;1255;48.716;9.124;2022-07-24T08:46:20;25.70;99.90
2489;DHT22;1255;48.716;9.124;2022-07-24T08:48:48;25.80;99.90
2489;DHT22;1255;48.716;9.124;2022-07-24T08:51:15;25.90;99.90
2489;DHT22;1255;48.716;9.124;2022-07-24T08:53:43;25.90;99.90
2489;DHT22;1255;48.716;9.124;2022-07-24T08:56:13;25.90;99.90
2489;DHT22;1255;48.716;9.124;2022-07-24T08:58:51;26.00;99.90
2489;DHT22;1255;48.716;9.124;2022-07-24T09:01:18;26.10;99.90
2489;DHT22;1255;48.716;9.124;2022-07-24T09:03:47;26.20;99.90
2489;DHT22;1255;48.716;9.124;2022-07-24T09:06:15;26.20;99.90
2489;DHT22;1255;48.716;9.124;2022-07-24T09:08:57;26.20;99.90
2489;DHT22;1255;48.716;9.124;2022-07-24T09:11:26;26.10;99.90
2489;DHT22;1255;48.716;9.124;2022-07-24T09:13:59;26.00;99.90
2489;DHT22;1255;48.716;9.124;2022-07-24T09:16:46;26.00;99.90
2489;DHT22;1255;48.716;9.124;2022-07-24T09:19:46;26.20;99.90
2489;DHT22;1255;48.716;9.124;2022-07-24T09:22:23;26.40;99.90
2489;DHT22;1255;48.716;9.124;2022-07-24T09:25:05;26.50;99.90
2489;DHT22;1255;48.716;9.124;2022-07-24T09:27:38;26.80;99.90
2489;DHT22;1255;48.716;9.124;2022-07-24T09:30:07;27.10;99.90
2489;DHT22;1255;48.716;9.124;2022-07-24T09:32:35;27.20;99.90
2489;DHT22;1255;48.716;9.124;2022-07-24T09:35:03;27.40;99.90
2489;DHT22;1255;48.716;9.124;2022-07-24T09:37:31;27.40;98.90
2489;DHT22;1255;48.716;9.124;2022-07-24T09:40:07;27.50;99.60
2489;DHT22;1255;48.716;9.124;2022-07-24T09:42:36;27.40;98.60
2489;DHT22;1255;48.716;9.124;2022-07-24T09:45:07;27.40;99.90
2489;DHT22;1255;48.716;9.124;2022-07-24T09:47:37;27.40;99.90
2489;DHT22;1255;48.716;9.124;2022-07-24T09:50:13;27.30;99.90
2489;DHT22;1255;48.716;9.124;2022-07-24T09:52:53;27.20;99.90
2489;DHT22;1255;48.716;9.124;2022-07-24T09:55:23;27.00;99.40
2489;DHT22;1255;48.716;9.124;2022-07-24T09:57:52;26.90;99.90
2489;DHT22;1255;48.716;9.124;2022-07-24T10:00:19;26.90;99.90
2489;DHT22;1255;48.716;9.124;2022-07-24T10:02:47;26.80;99.90
2489;DHT22;1255;48.716;9.124;2022-07-24T10:05:20;26.70;99.90
2489;DHT22;1255;48.716;9.124;2022-07-24T10:07:59;26.60;99.90
2489;DHT22;1255;48.716;9.124;2022-07-24T10:10:28;26.50;99.50
2489;DHT22;1255;48.716;9.124;2022-07-24T10:12:59;26.50;99.30
2489;DHT22;1255;48.716;9.124;2022-07-24T10:15:29;26.50;99.90
2489;DHT22;1255;48.716;9.124;2022-07-24T10:18:14;26.60;99.90
2489;DHT22;1255;48.716;9.124;2022-07-24T10:20:43;26.90;99.90
2489;DHT22;1255;48.716;9.124;2022-07-24T10:23:21;27.10;99.90
2489;DHT22;1255;48.716;9.124;2022-07-24T10:25:53;27.00;99.90
2489;DHT22;1255;48.716;9.124;2022-07-24T10:31:47;26.80;99.90
2489;DHT22;1255;48.716;9.124;2022-07-24T10:34:59;26.80;99.90
2489;DHT22;1255;48.716;9.124;2022-07-24T10:38:01;26.70;99.20
2489;DHT22;1255;48.716;9.124;2022-07-24T10:40:42;26.70;99.90
2489;DHT22;1255;48.716;9.124;2022-07-24T10:43:30;26.60;99.90
2489;DHT22;1255;48.716;9.124;2022-07-24T10:46:12;26.50;99.70
2489;DHT22;1255;48.716;9.124;2022-07-24T10:48:41;26.50;99.90
2489;DHT22;1255;48.716;9.124;2022-07-24T10:51:10;26.70;99.90
2489;DHT22;1255;48.716;9.124;2022-07-24T10:53:49;26.80;99.90
2489;DHT22;1255;48.716;9.124;2022-07-24T10:56:21;26.90;99.90
2489;DHT22;1255;48.716;9.124;2022-07-24T10:58:57;27.00;99.90
2489;DHT22;1255;48.716;9.124;2022-07-24T11:01:36;27.10;99.90
2489;DHT22;1255;48.716;9.124;2022-07-24T11:04:24;27.30;99.90
2489;DHT22;1255;48.716;9.124;2022-07-24T11:06:53;27.50;99.90
2489;DHT22;1255;48.716;9.124;2022-07-24T11:09:21;27.70;99.90
2489;DHT22;1255;48.716;9.124;2022-07-24T11:12:05;27.60;98.50
2489;DHT22;1255;48.716;9.124;2022-07-24T11:14:49;27.50;98.70
2489;DHT22;1255;48.716;9.124;2022-07-24T11:17:38;27.30;99.00
2489;DHT22;1255;48.716;9.124;2022-07-24T11:20:09;27.40;99.20
2489;DHT22;1255;48.716;9.124;2022-07-24T11:22:39;27.40;99.90
2489;DHT22;1255;48.716;9.124;2022-07-24T11:25:16;27.40;99.90
2489;DHT22;1255;48.716;9.124;2022-07-24T11:27:54;27.40;99.90
2489;DHT22;1255;48.716;9.124;2022-07-24T11:30:25;27.20;99.90
2489;DHT22;1255;48.716;9.124;2022-07-24T11:32:52;27.10;99.90
2489;DHT22;1255;48.716;9.124;2022-07-24T11:35:28;27.00;99.90
2489;DHT22;1255;48.716;9.124;2022-07-24T11:37:55;27.00;99.90
2489;DHT22;1255;48.716;9.124;2022-07-24T11:40:22;27.00;99.90
2489;DHT22;1255;48.716;9.124;2022-07-24T11:42:54;27.20;99.90
2489;DHT22;1255;48.716;9.124;2022-07-24T11:45:21;27.50;99.90
2489;DHT22;1255;48.716;9.124;2022-07-24T11:47:48;28.00;99.90
2489;DHT22;1255;48.716;9.124;2022-07-24T11:50:15;28.40;99.90
2489;DHT22;1255;48.716;9.124;2022-07-24T11:52:43;28.80;99.90
2489;DHT22;1255;48.716;9.124;2022-07-24T11:55:12;29.10;99.90
2489;DHT22;1255;48.716;9.124;2022-07-24T11:57:41;29.30;99.90
2489;DHT22;1255;48.716;9.124;2022-07-24T12:00:10;29.60;99.70
2489;DHT22;1255;48.716;9.124;2022-07-24T12:02:42;29.90;98.80
2489;DHT22;1255;48.716;9.124;2022-07-24T12:05:09;30.10;97.90
2489;DHT22;1255;48.716;9.124;2022-07-24T12:07:36;30.30;96.80
2489;DHT22;1255;48.716;9.124;2022-07-24T12:10:05;30.40;97.40
2489;DHT22;1255;48.716;9.124;2022-07-24T12:12:33;30.50;96.90
2489;DHT22;1255;48.716;9.124;2022-07-24T12:15:02;30.50;95.80
2489;DHT22;1255;48.716;9.124;2022-07-24T12:17:31;30.50;96.50
2489;DHT22;1255;48.716;9.124;2022-07-24T12:19:59;30.60;97.30
2489;DHT22;1255;48.716;9.124;2022-07-24T12:22:28;30.70;97.20
2489;DHT22;1255;48.716;9.124;2022-07-24T12:24:56;30.60;92.10
2489;DHT22;1255;48.716;9.124;2022-07-24T12:27:36;30.50;94.60
2489;DHT22;1255;48.716;9.124;2022-07-24T12:30:15;30.60;94.20
2489;DHT22;1255;48.716;9.124;2022-07-24T12:32:53;30.60;95.40
2489;DHT22;1255;48.716;9.124;2022-07-24T12:35:20;30.60;95.10
2489;DHT22;1255;48.716;9.124;2022-07-24T12:37:46;30.40;95.40
2489;DHT22;1255;48.716;9.124;2022-07-24T12:40:25;30.30;93.50
2489;DHT22;1255;48.716;9.124;2022-07-24T12:42:59;30.00;92.60
2489;DHT22;1255;48.716;9.124;2022-07-24T12:45:26;30.10;96.40
2489;DHT22;1255;48.716;9.124;2022-07-24T12:48:21;30.30;94.80
2489;DHT22;1255;48.716;9.124;2022-07-24T12:51:05;30.30;94.30
2489;DHT22;1255;48.716;9.124;2022-07-24T12:53:37;30.30;93.00
2489;DHT22;1255;48.716;9.124;2022-07-24T12:56:07;30.20;93.70
2489;DHT22;1255;48.716;9.124;2022-07-24T12:58:54;30.10;93.40
2489;DHT22;1255;48.716;9.124;2022-07-24T13:01:21;30.20;94.10
2489;DHT22;1255;48.716;9.124;2022-07-24T13:03:54;30.50;94.30
2489;DHT22;1255;48.716;9.124;2022-07-24T13:06:35;30.70;91.70
2489;DHT22;1255;48.716;9.124;2022-07-24T13:09:04;30.70;93.60
2489;DHT22;1255;48.716;9.124;2022-07-24T13:11:31;30.70;95.80
2489;DHT22;1255;48.716;9.124;2022-07-24T13:13:59;30.80;95.80
2489;DHT22;1255;48.716;9.124;2022-07-24T13:16:28;31.00;95.50
2489;DHT22;1255;48.716;9.124;2022-07-24T13:18:55;31.10;95.10
2489;DHT22;1255;48.716;9.124;2022-07-24T13:21:21;31.30;95.60
2489;DHT22;1255;48.716;9.124;2022-07-24T13:23:48;31.30;94.00
2489;DHT22;1255;48.716;9.124;2022-07-24T13:26:15;31.40;95.30
2489;DHT22;1255;48.716;9.124;2022-07-24T13:28:42;31.30;94.20
2489;DHT22;1255;48.716;9.124;2022-07-24T13:31:10;31.40;94.30
2489;DHT22;1255;48.716;9.124;2022-07-24T13:33:37;31.30;94.20
2489;DHT22;1255;48.716;9.124;2022-07-24T13:36:04;31.40;93.90
2489;DHT22;1255;48.716;9.124;2022-07-24T13:38:31;31.40;93.50
2489;DHT22;1255;48.716;9.124;2022-07-24T13:40:58;31.30;93.40
2489;DHT22;1255;48.716;9.124;2022-07-24T13:43:25;31.30;95.80
2489;DHT22;1255;48.716;9.124;2022-07-24T13:45:52;31.40;92.40
2489;DHT22;1255;48.716;9.124;2022-07-24T13:48:20;31.50;90.90
2489;DHT22;1255;48.716;9.124;2022-07-24T13:50:47;31.40;90.20
2489;DHT22;1255;48.716;9.124;2022-07-24T13:53:13;31.40;92.50
2489;DHT22;1255;48.716;9.124;2022-07-24T13:55:40;31.40;91.70
2489;DHT22;1255;48.716;9.124;2022-07-24T13:58:07;31.50;94.60
2489;DHT22;1255;48.716;9.124;2022-07-24T14:00:33;31.60;94.50
2489;DHT22;1255;48.716;9.124;2022-07-24T14:03:00;31.60;91.40
2489;DHT22;1255;48.716;9.124;2022-07-24T14:05:29;31.70;90.30
2489;DHT22;1255;48.716;9.124;2022-07-24T14:07:56;31.70;89.70
2489;DHT22;1255;48.716;9.124;2022-07-24T14:10:23;31.80;90.80
2489;DHT22;1255;48.716;9.124;2022-07-24T14:12:50;31.80;91.20
2489;DHT22;1255;48.716;9.124;2022-07-24T14:15:16;31.80;91.70
2489;DHT22;1255;48.716;9.124;2022-07-24T14:17:44;31.70;89.10
2489;DHT22;1255;48.716;9.124;2022-07-24T14:20:12;31.50;90.00
2489;DHT22;1255;48.716;9.124;2022-07-24T14:22:41;31.40;90.80
2489;DHT22;1255;48.716;9.124;2022-07-24T14:25:08;31.50;91.00
2489;DHT22;1255;48.716;9.124;2022-07-24T14:27:35;31.50;91.50
2489;DHT22;1255;48.716;9.124;2022-07-24T14:30:03;31.50;91.80
2489;DHT22;1255;48.716;9.124;2022-07-24T14:32:31;31.40;89.90
2489;DHT22;1255;48.716;9.124;2022-07-24T14:34:58;31.20;90.90
2489;DHT22;1255;48.716;9.124;2022-07-24T14:37:25;31.10;91.60
2489;DHT22;1255;48.716;9.124;2022-07-24T14:39:53;31.10;91.50
2489;DHT22;1255;48.716;9.124;2022-07-24T14:42:20;31.10;90.90
2489;DHT22;1255;48.716;9.124;2022-07-24T14:44:47;31.20;90.50
2489;DHT22;1255;48.716;9.124;2022-07-24T14:47:13;31.20;92.50
2489;DHT22;1255;48.716;9.124;2022-07-24T14:49:40;31.20;91.50
2489;DHT22;1255;48.716;9.124;2022-07-24T14:52:07;31.20;91.30
2489;DHT22;1255;48.716;9.124;2022-07-24T14:54:34;31.30;90.80
2489;DHT22;1255;48.716;9.124;2022-07-24T14:57:02;31.30;90.90
2489;DHT22;1255;48.716;9.124;2022-07-24T14:59:29;31.40;91.80
2489;DHT22;1255;48.716;9.124;2022-07-24T15:01:56;31.50;91.40
2489;DHT22;1255;48.716;9.124;2022-07-24T15:04:22;31.50;90.90
2489;DHT22;1255;48.716;9.124;2022-07-24T15:06:49;31.50;91.10
2489;DHT22;1255;48.716;9.124;2022-07-24T15:09:16;31.40;91.60
2489;DHT22;1255;48.716;9.124;2022-07-24T15:11:43;31.40;88.90
2489;DHT22;1255;48.716;9.124;2022-07-24T15:14:11;31.40;90.00
2489;DHT22;1255;48.716;9.124;2022-07-24T15:16:37;31.40;87.20
2489;DHT22;1255;48.716;9.124;2022-07-24T15:19:04;31.40;90.90
2489;DHT22;1255;48.716;9.124;2022-07-24T15:21:31;31.40;91.70
2489;DHT22;1255;48.716;9.124;2022-07-24T15:23:57;31.40;92.50
2489;DHT22;1255;48.716;9.124;2022-07-24T15:26:24;31.40;91.40
2489;DHT22;1255;48.716;9.124;2022-07-24T15:28:51;31.50;91.50
2489;DHT22;1255;48.716;9.124;2022-07-24T15:31:19;31.50;91.20
2489;DHT22;1255;48.716;9.124;2022-07-24T15:33:47;31.30;89.20
2489;DHT22;1255;48.716;9.124;2022-07-24T15:36:14;31.20;90.50
2489;DHT22;1255;48.716;9.124;2022-07-24T15:38:40;31.30;90.80
2489;DHT22;1255;48.716;9.124;2022-07-24T15:41:07;31.20;90.90
2489;DHT22;1255;48.716;9.124;2022-07-24T15:43:34;31.30;91.70
2489;DHT22;1255;48.716;9.124;2022-07-24T15:46:01;31.30;91.40
2489;DHT22;1255;48.716;9.124;2022-07-24T15:48:29;31.40;91.60
2489;DHT22;1255;48.716;9.124;2022-07-24T15:50:56;31.30;92.20
2489;DHT22;1255;48.716;9.124;2022-07-24T15:53:22;31.40;90.50
2489;DHT22;1255;48.716;9.124;2022-07-24T15:55:49;31.30;91.40
2489;DHT22;1255;48.716;9.124;2022-07-24T15:58:16;31.20;90.40
2489;DHT22;1255;48.716;9.124;2022-07-24T16:00:43;31.10;89.40
2489;DHT22;1255;48.716;9.124;2022-07-24T16:03:09;31.00;86.90
2489;DHT22;1255;48.716;9.124;2022-07-24T16:05:38;30.90;87.00
2489;DHT22;1255;48.716;9.124;2022-07-24T16:08:05;30.90;87.80
2489;DHT22;1255;48.716;9.124;2022-07-24T16:10:32;30.90;87.50
2489;DHT22;1255;48.716;9.124;2022-07-24T16:12:58;30.80;87.40
2489;DHT22;1255;48.716;9.124;2022-07-24T16:15:25;30.70;91.00
2489;DHT22;1255;48.716;9.124;2022-07-24T16:17:52;30.70;90.20
2489;DHT22;1255;48.716;9.124;2022-07-24T16:20:19;30.70;90.60
2489;DHT22;1255;48.716;9.124;2022-07-24T16:22:47;30.70;88.90
2489;DHT22;1255;48.716;9.124;2022-07-24T16:25:14;30.60;87.70
2489;DHT22;1255;48.716;9.124;2022-07-24T16:27:41;30.60;89.00
2489;DHT22;1255;48.716;9.124;2022-07-24T16:30:09;30.60;90.70
2489;DHT22;1255;48.716;9.124;2022-07-24T16:32:35;30.60;90.60
2489;DHT22;1255;48.716;9.124;2022-07-24T16:35:02;30.60;90.00
2489;DHT22;1255;48.716;9.124;2022-07-24T16:37:29;30.50;89.70
2489;DHT22;1255;48.716;9.124;2022-07-24T16:39:59;30.40;90.30
2489;DHT22;1255;48.716;9.124;2022-07-24T16:42:26;30.30;90.00
2489;DHT22;1255;48.716;9.124;2022-07-24T16:44:53;30.30;90.10
2489;DHT22;1255;48.716;9.124;2022-07-24T16:47:19;30.30;90.70
2489;DHT22;1255;48.716;9.124;2022-07-24T16:49:46;30.10;90.60
2489;DHT22;1255;48.716;9.124;2022-07-24T16:52:13;30.10;90.50
2489;DHT22;1255;48.716;9.124;2022-07-24T16:54:40;30.10;91.00
2489;DHT22;1255;48.716;9.124;2022-07-24T16:57:08;30.00;91.00